Time;durP1;ratioP1;P1;durP2;ratioP2;P2;SDS_P1;SDS_P2;PMS_P1;PMS_P2;Temp;Humidity;BMP_temperature;BMP_pressure;BME280_temperature;BME280_humidity;BME280_pressure;Samples;Min_cycle;Max_cycle;Signal;HPM_P1;HPM_P2
2022/03/27 00:00:00;;;;;;;28.67;21.70;;;;;;;6.77;100.00;102708.38;4985370;28;20620;-58
2022/03/27 00:02:27;;;;;;;30.87;23.03;;;;;;;6.68;100.00;102703.63;4984196;28;20742;-59
2022/03/27 00:04:54;;;;;;;27.70;22.73;;;;;;;6.58;100.00;102699.69;4982698;28;20242;-58
2022/03/27 00:07:21;;;;;;;34.10;23.73;;;;;;;6.48;100.00;102707.91;4984341;28;20242;-58
2022/03/27 00:09:47;;;;;;;28.70;23.43;;;;;;;6.39;100.00;102700.53;4982852;28;20242;-58
2022/03/27 00:12:14;;;;;;;25.20;20.57;;;;;;;6.32;100.00;102702.75;4983861;28;20238;-57
2022/03/27 00:14:40;;;;;;;27.00;22.03;;;;;;;6.25;100.00;102705.88;4979211;28;20249;-58
2022/03/27 00:17:06;;;;;;;31.60;22.20;;;;;;;6.24;100.00;102710.22;4984804;28;20265;-57
2022/03/27 00:19:33;;;;;;;29.20;21.43;;;;;;;6.25;100.00;102711.09;4984352;28;20245;-58
2022/03/27 00:22:00;;;;;;;33.77;27.27;;;;;;;6.30;100.00;102709.63;4985397;28;20242;-57
2022/03/27 00:24:27;;;;;;;34.73;27.63;;;;;;;6.21;100.00;102710.06;4984101;28;20226;-61
2022/03/27 00:26:54;;;;;;;34.73;28.30;;;;;;;6.18;100.00;102716.06;4984769;28;20313;-57
2022/03/27 00:29:22;;;;;;;38.77;28.57;;;;;;;6.16;100.00;102717.69;4984183;28;20230;-58
2022/03/27 00:31:48;;;;;;;41.30;32.07;;;;;;;6.17;100.00;102706.41;4985044;28;20321;-57
2022/03/27 00:34:15;;;;;;;40.83;30.60;;;;;;;6.16;100.00;102712.47;4983718;28;20299;-57
2022/03/27 00:36:41;;;;;;;41.60;31.57;;;;;;;6.15;100.00;102710.69;4983089;28;20248;-57
2022/03/27 00:39:09;;;;;;;43.33;32.67;;;;;;;6.17;100.00;102708.13;4984549;28;20229;-58
2022/03/27 00:41:35;;;;;;;40.20;31.17;;;;;;;6.15;100.00;102705.47;4984146;28;20245;-59
2022/03/27 00:44:02;;;;;;;35.77;31.60;;;;;;;6.13;100.00;102701.88;4984181;28;20230;-58
2022/03/27 00:46:28;;;;;;;42.40;31.47;;;;;;;6.16;100.00;102702.03;4984522;28;20252;-57
2022/03/27 00:48:55;;;;;;;41.27;30.77;;;;;;;6.18;100.00;102709.94;4970022;28;20238;-58
2022/03/27 00:51:21;;;;;;;34.33;27.90;;;;;;;6.08;100.00;102707.72;4982878;28;20676;-59
2022/03/27 00:53:48;;;;;;;39.60;27.83;;;;;;;6.04;100.00;102705.75;4985578;28;20241;-57
2022/03/27 00:56:16;;;;;;;43.47;28.13;;;;;;;6.03;100.00;102704.84;4984938;28;20234;-59
2022/03/27 00:58:42;;;;;;;44.87;32.20;;;;;;;5.97;100.00;102710.69;4984788;28;20288;-58
2022/03/27 01:01:16;;;;;;;41.00;28.97;;;;;;;5.91;100.00;102705.13;4985247;28;20237;-61
2022/03/27 01:03:43;;;;;;;37.87;28.00;;;;;;;5.85;100.00;102707.41;4984082;28;20617;-57
2022/03/27 01:06:19;;;;;;;41.93;29.87;;;;;;;5.82;100.00;102704.66;4984183;28;20234;-57
2022/03/27 01:11:31;;;;;;;30.50;23.67;;;;;;;5.78;100.00;102704.44;4984628;28;20248;-58
2022/03/27 01:13:58;;;;;;;36.50;25.57;;;;;;;5.77;100.00;102694.81;4984460;28;20226;-57
2022/03/27 01:16:36;;;;;;;29.40;22.73;;;;;;;5.82;100.00;102691.63;4985133;28;20244;-58
2022/03/27 01:19:03;;;;;;;21.83;17.40;;;;;;;5.81;100.00;102692.44;4984934;28;20237;-58
2022/03/27 01:21:31;;;;;;;25.87;17.63;;;;;;;5.79;100.00;102698.38;4984918;28;20234;-58
2022/03/27 01:23:58;;;;;;;20.07;17.10;;;;;;;5.75;100.00;102697.34;4984851;28;20234;-58
2022/03/27 01:26:24;;;;;;;25.80;18.70;;;;;;;5.75;100.00;102703.44;4985130;28;20312;-58
2022/03/27 01:28:51;;;;;;;27.43;20.87;;;;;;;5.77;100.00;102705.25;4984528;28;20236;-58
2022/03/27 01:31:18;;;;;;;23.43;19.83;;;;;;;5.72;100.00;102703.31;4985086;28;20317;-59
2022/03/27 01:33:44;;;;;;;27.87;21.33;;;;;;;5.71;100.00;102700.59;4983987;28;20237;-57
2022/03/27 01:36:11;;;;;;;32.07;22.80;;;;;;;5.70;100.00;102704.94;4983077;28;20308;-58
2022/03/27 01:38:38;;;;;;;29.43;23.30;;;;;;;5.70;100.00;102704.94;4981273;28;20230;-57
2022/03/27 01:41:05;;;;;;;30.83;23.30;;;;;;;5.68;100.00;102697.84;4984118;28;20288;-58
2022/03/27 01:43:31;;;;;;;33.03;25.13;;;;;;;5.68;100.00;102703.94;4984181;28;20313;-57
2022/03/27 01:45:58;;;;;;;39.43;30.50;;;;;;;5.72;100.00;102705.91;4984552;28;20230;-57
2022/03/27 01:48:24;;;;;;;44.30;32.37;;;;;;;5.67;100.00;102709.97;4988252;28;20292;-57
2022/03/27 01:51:00;;;;;;;48.00;30.57;;;;;;;5.63;100.00;102715.88;4988001;28;20234;-58
2022/03/27 01:53:27;;;;;;;41.67;30.17;;;;;;;5.60;100.00;102715.69;4988091;28;20229;-58
2022/03/27 01:55:55;;;;;;;46.47;30.03;;;;;;;5.55;100.00;102714.59;4988155;28;20246;-58
2022/03/27 01:58:21;;;;;;;41.50;27.47;;;;;;;5.43;100.00;102712.22;4987413;28;20241;-58
2022/03/27 02:00:48;;;;;;;39.20;26.30;;;;;;;5.37;100.00;102718.81;4988414;28;20328;-57
2022/03/27 02:03:14;;;;;;;38.20;25.17;;;;;;;5.29;100.00;102722.75;4987341;28;20233;-57
2022/03/27 02:05:41;;;;;;;32.77;23.77;;;;;;;5.25;100.00;102717.38;4987388;28;20280;-58
2022/03/27 02:08:09;;;;;;;31.97;23.50;;;;;;;5.29;100.00;102715.81;4987826;28;20233;-58
2022/03/27 02:10:35;;;;;;;29.57;20.17;;;;;;;5.30;100.00;102716.72;4987981;28;20237;-58
2022/03/27 02:13:03;;;;;;;25.37;19.83;;;;;;;5.28;100.00;102724.47;4987639;28;20253;-59
2022/03/27 02:15:30;;;;;;;25.40;20.43;;;;;;;5.29;100.00;102726.25;4978585;28;20241;-58
2022/03/27 02:17:58;;;;;;;26.67;18.30;;;;;;;5.32;100.00;102720.31;4987943;28;20237;-58
2022/03/27 02:20:24;;;;;;;21.73;17.37;;;;;;;5.25;100.00;102730.38;4987747;28;20740;-58
2022/03/27 02:22:51;;;;;;;19.93;16.20;;;;;;;5.15;100.00;102733.31;4987951;28;20230;-63
2022/03/27 02:25:18;;;;;;;21.13;16.97;;;;;;;5.07;100.00;102734.63;4988058;28;20300;-58
2022/03/27 02:27:45;;;;;;;21.37;16.27;;;;;;;5.06;100.00;102742.38;4988012;28;20229;-57
2022/03/27 02:30:15;;;;;;;20.07;16.10;;;;;;;5.05;100.00;102737.94;4975053;28;20249;-57
2022/03/27 02:32:41;;;;;;;17.90;15.07;;;;;;;5.07;100.00;102736.34;4986916;28;20238;-57
2022/03/27 02:35:08;;;;;;;17.53;14.77;;;;;;;5.08;100.00;102744.22;4985226;28;20581;-56
2022/03/27 02:37:35;;;;;;;16.03;14.27;;;;;;;5.09;100.00;102739.91;4987076;28;20229;-58
2022/03/27 02:40:01;;;;;;;16.87;15.13;;;;;;;5.11;100.00;102736.56;4986820;28;20321;-57
2022/03/27 02:42:27;;;;;;;16.87;14.10;;;;;;;5.08;100.00;102731.19;4987040;28;20788;-58
2022/03/27 02:44:54;;;;;;;17.00;15.07;;;;;;;5.02;100.00;102730.91;4986090;28;20238;-58
2022/03/27 02:47:22;;;;;;;20.70;15.13;;;;;;;4.91;100.00;102737.22;4987644;28;20237;-60
2022/03/27 02:49:48;;;;;;;19.03;14.97;;;;;;;4.85;100.00;102732.59;4987210;28;20230;-57
2022/03/27 02:52:14;;;;;;;19.67;15.80;;;;;;;4.85;100.00;102734.28;4987235;28;20280;-57
2022/03/27 02:54:41;;;;;;;21.07;17.70;;;;;;;4.83;100.00;102733.31;4986597;28;20296;-57
2022/03/27 02:57:07;;;;;;;24.43;17.33;;;;;;;4.83;100.00;102733.31;4986365;28;20332;-58
2022/03/27 02:59:34;;;;;;;23.10;17.00;;;;;;;4.78;100.00;102752.16;4986460;28;20238;-57
2022/03/27 03:02:03;;;;;;;21.30;17.90;;;;;;;4.78;100.00;102752.16;4986635;28;20245;-57
2022/03/27 03:04:31;;;;;;;17.20;15.37;;;;;;;4.82;100.00;102747.13;4985463;28;20237;-58
2022/03/27 03:06:57;;;;;;;22.00;15.50;;;;;;;4.75;100.00;102758.91;4987247;28;20237;-57
2022/03/27 03:09:24;;;;;;;18.50;16.27;;;;;;;4.68;100.00;102755.06;4986549;28;20289;-59
2022/03/27 03:11:50;;;;;;;16.67;14.13;;;;;;;4.63;100.00;102755.63;4986784;28;20238;-60
2022/03/27 03:14:17;;;;;;;16.87;15.07;;;;;;;4.64;100.00;102752.22;4986725;28;20281;-58
2022/03/27 03:16:44;;;;;;;17.90;14.23;;;;;;;4.67;100.00;102750.69;4986308;28;20603;-58
2022/03/27 03:19:10;;;;;;;18.43;14.40;;;;;;;4.64;100.00;102736.63;4986245;28;20251;-58
2022/03/27 03:21:40;;;;;;;19.80;16.10;;;;;;;4.70;100.00;102747.34;4986436;28;20284;-57
2022/03/27 03:24:07;;;;;;;19.03;15.83;;;;;;;4.73;100.00;102750.09;4985968;28;20297;-58
2022/03/27 03:26:34;;;;;;;16.47;14.47;;;;;;;4.69;100.00;102746.44;4986196;28;20288;-58
2022/03/27 03:29:00;;;;;;;18.03;14.47;;;;;;;4.62;100.00;102739.13;4985145;28;20381;-58
2022/03/27 03:31:27;;;;;;;15.63;13.33;;;;;;;4.56;100.00;102743.97;4985922;28;20251;-57
2022/03/27 03:33:53;;;;;;;17.33;13.73;;;;;;;4.55;100.00;102742.19;4986245;28;20735;-58
2022/03/27 03:36:19;;;;;;;16.17;12.47;;;;;;;4.56;100.00;102741.38;4985796;28;20230;-59
2022/03/27 03:38:47;;;;;;;14.73;12.13;;;;;;;4.55;100.00;102742.19;4986274;28;20242;-57
2022/03/27 03:41:13;;;;;;;14.70;13.03;;;;;;;4.59;100.00;102736.34;4985876;28;20320;-58
2022/03/27 03:43:40;;;;;;;12.33;11.10;;;;;;;4.64;100.00;102742.72;4986401;28;20266;-58
2022/03/27 03:46:07;;;;;;;15.27;12.87;;;;;;;4.68;100.00;102746.38;4985584;28;20572;-57
2022/03/27 03:48:34;;;;;;;13.53;11.87;;;;;;;4.69;100.00;102746.44;4985873;28;20779;-57
2022/03/27 03:51:00;;;;;;;13.20;11.90;;;;;;;4.74;100.00;102750.22;4995826;22;20238;-56
2022/03/27 03:53:27;;;;;;;14.93;11.70;;;;;;;4.76;100.00;102742.47;4985262;28;20244;-55
2022/03/27 03:55:55;;;;;;;14.23;12.30;;;;;;;4.77;100.00;102745.19;4985086;28;20313;-54
2022/03/27 03:58:21;;;;;;;13.70;12.30;;;;;;;4.83;100.00;102730.69;4986273;28;20245;-54
2022/03/27 04:00:48;;;;;;;13.00;11.23;;;;;;;4.82;100.00;102727.22;4986575;28;20238;-54
2022/03/27 04:03:14;;;;;;;16.03;12.90;;;;;;;4.85;100.00;102722.19;4978663;28;20245;-55
2022/03/27 04:05:40;;;;;;;15.50;13.10;;;;;;;4.86;100.00;102725.66;4966616;28;20253;-55
2022/03/27 04:08:07;;;;;;;17.77;12.87;;;;;;;4.77;100.00;102729.56;4966780;28;20649;-58
2022/03/27 04:10:34;;;;;;;14.00;12.53;;;;;;;4.64;100.00;102727.09;4966133;28;20258;-54
2022/03/27 04:13:02;;;;;;;12.87;11.57;;;;;;;4.53;100.00;102728.22;4966600;28;20257;-55
2022/03/27 04:15:28;;;;;;;15.60;11.70;;;;;;;4.45;100.00;102725.16;4966183;28;20242;-55
2022/03/27 04:17:54;;;;;;;14.57;12.73;;;;;;;4.45;100.00;102730.38;4966044;28;20234;-55
2022/03/27 04:20:21;;;;;;;12.80;11.50;;;;;;;4.49;100.00;102719.34;4965908;28;20297;-55
2022/03/27 04:22:47;;;;;;;16.47;12.70;;;;;;;4.54;100.00;102730.00;4966425;28;20301;-55
2022/03/27 04:25:15;;;;;;;16.73;12.50;;;;;;;4.58;100.00;102726.75;4965476;28;20246;-55
2022/03/27 04:27:42;;;;;;;13.13;11.83;;;;;;;4.62;100.00;102725.22;4966441;28;20257;-55
2022/03/27 04:30:11;;;;;;;13.40;12.00;;;;;;;4.63;100.00;102727.88;4966082;28;20350;-54
2022/03/27 04:32:38;;;;;;;14.90;13.30;;;;;;;4.67;100.00;102716.88;4966754;28;20238;-55
2022/03/27 04:35:06;;;;;;;14.97;13.37;;;;;;;4.71;100.00;102734.44;4963223;28;20270;-55
2022/03/27 04:37:32;;;;;;;13.70;12.00;;;;;;;4.71;100.00;102724.03;4958125;28;20654;-53
2022/03/27 04:40:02;;;;;;;14.77;11.83;;;;;;;4.71;100.00;102736.13;4965962;28;20237;-54
2022/03/27 04:42:29;;;;;;;13.37;11.97;;;;;;;4.74;100.00;102728.50;4960801;28;20246;-54
2022/03/27 04:44:56;;;;;;;12.37;11.07;;;;;;;4.84;100.00;102727.28;4959165;28;20709;-54
2022/03/27 04:47:23;;;;;;;14.17;12.67;;;;;;;4.85;100.00;102718.69;4966318;28;20287;-55
2022/03/27 04:49:50;;;;;;;12.30;11.10;;;;;;;4.79;100.00;102722.72;4966430;28;20242;-54
2022/03/27 04:52:17;;;;;;;16.33;13.20;;;;;;;4.77;100.00;102720.84;4962247;28;20241;-54
2022/03/27 04:54:43;;;;;;;13.00;11.50;;;;;;;4.81;100.00;102714.09;4966154;28;20644;-54
2022/03/27 04:57:10;;;;;;;12.47;11.17;;;;;;;4.74;100.00;102703.38;4965996;28;20313;-54
2022/03/27 04:59:36;;;;;;;18.00;12.93;;;;;;;4.75;100.00;102702.56;4966051;28;20279;-55
2022/03/27 05:02:03;;;;;;;14.80;13.27;;;;;;;4.75;100.00;102710.38;4965933;28;20274;-55
2022/03/27 05:04:30;;;;;;;14.93;11.87;;;;;;;4.75;100.00;102715.56;4965735;28;20712;-55
2022/03/27 05:06:57;;;;;;;14.47;12.27;;;;;;;4.80;100.00;102715.81;4969229;28;20284;-54
2022/03/27 05:09:23;;;;;;;19.53;14.63;;;;;;;4.85;100.00;102716.06;4965866;28;20235;-55
2022/03/27 05:11:50;;;;;;;14.20;12.70;;;;;;;4.82;100.00;102722.00;4961400;28;20238;-55
2022/03/27 05:14:16;;;;;;;13.43;12.10;;;;;;;4.81;100.00;102724.50;4962495;28;20234;-55
2022/03/27 05:16:43;;;;;;;15.97;13.07;;;;;;;4.88;100.00;102729.22;4965440;28;20249;-53
2022/03/27 05:19:09;;;;;;;14.17;12.47;;;;;;;4.86;100.00;102729.16;4965713;28;20241;-55
2022/03/27 05:21:38;;;;;;;14.70;13.20;;;;;;;4.82;100.00;102727.22;4954659;28;20231;-56
2022/03/27 05:24:08;;;;;;;16.23;13.27;;;;;;;4.81;100.00;102724.50;4946058;28;20308;-54
2022/03/27 05:26:35;;;;;;;14.47;12.83;;;;;;;4.84;100.00;102727.28;4951944;28;20227;-55
2022/03/27 05:29:03;;;;;;;15.60;12.43;;;;;;;4.81;100.00;102724.50;4965763;28;20320;-54
2022/03/27 05:31:29;;;;;;;16.67;13.40;;;;;;;4.79;100.00;102735.72;4965322;28;20638;-55
2022/03/27 05:33:56;;;;;;;15.20;13.03;;;;;;;4.78;100.00;102736.56;4965537;28;20246;-55
2022/03/27 05:36:22;;;;;;;15.47;13.23;;;;;;;4.75;100.00;102740.69;4962375;28;20238;-57
2022/03/27 05:38:50;;;;;;;15.20;13.60;;;;;;;4.82;100.00;102736.72;4965486;28;20243;-54
2022/03/27 05:41:16;;;;;;;16.97;15.27;;;;;;;4.81;100.00;102740.13;4964369;28;20234;-55
2022/03/27 05:43:43;;;;;;;18.47;15.77;;;;;;;4.73;100.00;102748.41;4965258;28;20253;-54
2022/03/27 05:46:10;;;;;;;16.57;14.87;;;;;;;4.71;100.00;102754.34;4965015;28;20288;-56
2022/03/27 05:48:37;;;;;;;17.77;15.93;;;;;;;4.64;100.00;102753.13;4965197;28;20237;-57
2022/03/27 05:51:03;;;;;;;17.07;15.23;;;;;;;4.62;100.00;102753.84;4964635;28;20235;-55
2022/03/27 05:53:30;;;;;;;17.43;15.57;;;;;;;4.62;100.00;102754.72;4965587;28;20245;-56
2022/03/27 05:55:59;;;;;;;18.60;15.20;;;;;;;4.68;100.00;102761.97;4967735;28;20234;-55
2022/03/27 05:58:25;;;;;;;17.73;15.63;;;;;;;4.68;100.00;102760.28;4976206;28;20246;-55
2022/03/27 06:00:52;;;;;;;18.17;16.27;;;;;;;4.78;100.00;102767.78;4964912;28;20741;-57
2022/03/27 06:03:18;;;;;;;17.80;14.97;;;;;;;4.79;100.00;102772.16;4965842;28;20245;-55
2022/03/27 06:05:45;;;;;;;18.10;15.90;;;;;;;4.86;100.00;102777.72;4964777;28;20234;-54
2022/03/27 06:08:11;;;;;;;18.53;16.70;;;;;;;4.86;100.00;102782.91;4965358;28;20622;-54
2022/03/27 06:10:39;;;;;;;22.60;19.30;;;;;;;4.85;100.00;102791.56;4965378;28;20247;-54
2022/03/27 06:13:06;;;;;;;20.43;18.33;;;;;;;4.85;100.00;102789.84;4978589;28;20655;-55
2022/03/27 06:15:33;;;;;;;22.07;19.33;;;;;;;4.90;100.00;102785.78;4965142;28;20319;-55
2022/03/27 06:18:00;;;;;;;17.60;15.90;;;;;;;4.93;100.00;102793.75;4964945;28;20231;-54
2022/03/27 06:20:28;;;;;;;18.97;17.00;;;;;;;4.99;100.00;102793.22;4960672;28;20306;-55
2022/03/27 06:22:55;;;;;;;21.20;19.13;;;;;;;5.05;100.00;102796.13;4962163;28;20238;-55
2022/03/27 06:25:23;;;;;;;20.27;17.10;;;;;;;5.19;100.00;102783.84;4965510;28;20242;-56
2022/03/27 06:27:49;;;;;;;18.20;16.40;;;;;;;5.24;100.00;102779.81;4966103;28;20289;-55
2022/03/27 06:30:18;;;;;;;18.20;15.83;;;;;;;5.23;100.00;102791.94;4961923;28;20317;-54
2022/03/27 06:32:45;;;;;;;17.93;15.83;;;;;;;5.26;100.00;102786.91;4965781;28;20266;-56
2022/03/27 06:35:12;;;;;;;17.37;15.33;;;;;;;5.30;100.00;102785.34;4962549;28;20250;-55
2022/03/27 06:37:39;;;;;;;18.20;16.27;;;;;;;5.37;100.00;102794.34;4953032;28;20235;-56
2022/03/27 06:40:08;;;;;;;16.37;14.67;;;;;;;5.46;100.00;102792.25;4949528;28;20254;-54
2022/03/27 06:42:34;;;;;;;17.13;15.33;;;;;;;5.56;100.00;102797.13;4958702;28;20234;-54
2022/03/27 06:45:01;;;;;;;17.90;16.03;;;;;;;5.65;100.00;102788.88;4967683;28;20301;-54
2022/03/27 06:47:29;;;;;;;17.70;15.80;;;;;;;5.78;100.00;102785.22;4968200;28;20773;-55
2022/03/27 06:49:56;;;;;;;19.97;15.80;;;;;;;5.93;100.00;102801.66;4968273;28;20593;-55
2022/03/27 06:52:24;;;;;;;20.37;15.90;;;;;;;6.12;100.00;102793.97;4968014;28;20301;-54
2022/03/27 06:54:51;;;;;;;17.27;15.17;;;;;;;6.24;100.00;102798.00;4967717;28;20305;-54
2022/03/27 06:57:18;;;;;;;18.03;15.93;;;;;;;6.44;100.00;102802.50;4963571;28;20225;-54
2022/03/27 07:05:14;;;;;;;19.50;17.47;;;;;;;6.69;100.00;102796.75;4963491;28;20364;-54
2022/03/27 07:07:41;;;;;;;19.43;16.70;;;;;;;6.92;100.00;102805.69;4967728;28;20254;-54
2022/03/27 07:10:08;;;;;;;20.20;16.87;;;;;;;6.99;100.00;102799.94;4967715;28;20234;-55
2022/03/27 07:12:34;;;;;;;18.63;16.33;;;;;;;7.05;100.00;102797.59;4967215;28;20721;-56
2022/03/27 07:15:01;;;;;;;20.00;15.60;;;;;;;7.21;100.00;102806.16;4967347;28;20671;-56
2022/03/27 07:17:27;;;;;;;17.50;15.77;;;;;;;7.38;100.00;102800.00;4962554;28;20314;-55
2022/03/27 07:19:55;;;;;;;19.10;16.10;;;;;;;7.44;100.00;102799.34;4948802;28;20239;-55
2022/03/27 07:22:22;;;;;;;19.87;17.77;;;;;;;7.55;100.00;102792.91;4963637;28;20242;-56
2022/03/27 07:24:48;;;;;;;17.03;15.23;;;;;;;7.60;100.00;102792.28;4967727;28;20241;-54
2022/03/27 07:27:16;;;;;;;17.37;15.47;;;;;;;7.74;100.00;102789.38;4967161;28;20246;-56
2022/03/27 07:29:42;;;;;;;17.63;14.60;;;;;;;7.93;100.00;102799.78;4967485;28;20672;-56
2022/03/27 07:32:11;;;;;;;16.13;14.53;;;;;;;8.08;100.00;102799.56;4967242;28;20904;-56
2022/03/27 07:34:37;;;;;;;15.30;13.80;;;;;;;8.28;100.00;102792.53;4966957;28;20250;-57
2022/03/27 07:37:05;;;;;;;15.37;13.77;;;;;;;8.32;100.00;102794.47;4966999;28;20756;-55
2022/03/27 07:39:32;;;;;;;16.00;14.40;;;;;;;8.38;100.00;102802.59;4967196;28;20266;-54
2022/03/27 07:41:58;;;;;;;15.43;13.50;;;;;;;8.47;100.00;102795.13;4966912;28;20333;-54
2022/03/27 07:44:24;;;;;;;15.30;13.10;;;;;;;8.57;100.00;102786.81;4967029;28;20285;-54
2022/03/27 07:46:52;;;;;;;14.07;12.57;;;;;;;8.67;100.00;102797.63;4967343;28;20692;-55
2022/03/27 07:49:19;;;;;;;16.13;13.13;;;;;;;8.82;100.00;102788.69;4967095;28;20250;-55
2022/03/27 07:51:45;;;;;;;14.83;13.20;;;;;;;8.99;100.00;102783.22;4967001;28;20669;-54
2022/03/27 07:54:13;;;;;;;13.17;11.73;;;;;;;9.16;100.00;102791.69;4958347;28;20246;-55
2022/03/27 07:56:39;;;;;;;13.20;11.20;;;;;;;9.31;100.00;102797.53;4966537;28;20242;-56
2022/03/27 07:59:06;;;;;;;13.03;11.53;;;;;;;9.29;99.31;102800.06;4966751;28;20242;-55
2022/03/27 08:01:32;;;;;;;12.77;11.47;;;;;;;9.51;98.69;102791.31;4966571;28;20705;-55
2022/03/27 08:03:59;;;;;;;16.80;14.33;;;;;;;9.59;97.54;102788.06;4966511;28;20230;-55
2022/03/27 08:06:26;;;;;;;14.47;12.43;;;;;;;9.86;97.29;102789.00;4966317;28;20669;-56
2022/03/27 08:08:52;;;;;;;13.13;11.83;;;;;;;9.95;95.14;102791.97;4966525;28;20715;-55
2022/03/27 08:11:20;;;;;;;12.43;11.23;;;;;;;10.19;94.82;102791.03;4967062;28;20313;-53
2022/03/27 08:13:46;;;;;;;12.93;11.63;;;;;;;10.32;93.20;102785.38;4959564;28;20231;-55
2022/03/27 08:16:12;;;;;;;13.53;12.13;;;;;;;10.27;93.59;102781.69;4951439;28;20650;-54
2022/03/27 08:18:39;;;;;;;12.63;10.83;;;;;;;10.35;93.07;102781.94;4957219;28;20305;-54
2022/03/27 08:21:06;;;;;;;12.60;11.30;;;;;;;10.49;92.23;102783.28;4966572;28;20243;-55
2022/03/27 08:23:32;;;;;;;14.60;11.17;;;;;;;10.71;91.13;102775.25;4966521;28;20227;-54
2022/03/27 08:28:46;;;;;;;12.87;11.40;;;;;;;10.77;90.46;102774.53;4966164;28;20233;-55
2022/03/27 08:31:12;;;;;;;13.27;11.40;;;;;;;11.02;90.32;102770.03;4966043;28;20844;-54
2022/03/27 08:33:38;;;;;;;12.80;11.53;;;;;;;11.26;89.68;102781.28;4965934;28;20948;-55
2022/03/27 08:36:05;;;;;;;12.70;11.40;;;;;;;11.49;87.25;102775.78;4963116;28;20792;-55
2022/03/27 08:38:31;;;;;;;13.20;11.40;;;;;;;11.36;87.21;102775.44;4961847;28;20246;-56
2022/03/27 08:41:01;;;;;;;13.97;12.37;;;;;;;11.16;86.85;102776.59;4966300;28;20239;-54
2022/03/27 08:43:27;;;;;;;14.20;11.83;;;;;;;11.02;87.88;102770.03;4962173;28;20261;-55
2022/03/27 08:45:55;;;;;;;13.90;12.40;;;;;;;11.33;87.68;102772.72;4965911;28;20536;-54
2022/03/27 08:48:22;;;;;;;12.50;11.27;;;;;;;11.30;86.63;102772.66;4966331;28;20716;-56
2022/03/27 08:50:58;;;;;;;14.10;11.83;;;;;;;11.37;85.32;102761.47;4960775;28;20577;-56
2022/03/27 08:53:30;;;;;;;13.37;11.93;;;;;;;11.39;83.29;102767.63;4965546;28;20575;-54
2022/03/27 08:55:59;;;;;;;14.43;12.93;;;;;;;11.64;83.09;102773.59;4964975;28;20238;-54
2022/03/27 08:58:33;;;;;;;14.00;11.73;;;;;;;11.74;82.77;102770.34;4966130;28;20230;-54
2022/03/27 09:01:00;;;;;;;12.23;11.03;;;;;;;11.63;82.41;102771.81;4965940;28;20262;-55
2022/03/27 09:03:27;;;;;;;14.60;12.55;;;;;;;11.45;82.57;102767.81;4965584;28;20922;-55
2022/03/27 09:05:54;;;;;;;14.63;13.13;;;;;;;11.28;84.29;102774.34;4957142;28;20227;-56
2022/03/27 09:08:20;;;;;;;13.33;11.97;;;;;;;11.47;82.73;102771.34;4950900;28;20231;-54
2022/03/27 09:10:46;;;;;;;13.50;11.63;;;;;;;11.77;81.54;102775.69;4950538;28;20235;-53
2022/03/27 09:13:14;;;;;;;14.13;12.52;;;;;;;12.22;79.44;102769.88;4953436;28;20234;-54
2022/03/27 09:15:40;;;;;;;15.70;12.68;;;;;;;12.51;77.86;102767.06;4964548;28;20273;-55
2022/03/27 09:18:09;;;;;;;16.48;13.77;;;;;;;12.64;78.60;102766.50;4965401;28;20234;-56
2022/03/27 09:20:38;;;;;;;14.63;13.00;;;;;;;12.74;76.71;102763.22;4964859;28;20248;-55
2022/03/27 09:23:23;;;;;;;14.40;12.73;;;;;;;12.97;75.39;102769.00;4965044;28;20300;-56
2022/03/27 09:25:53;;;;;;;12.57;11.15;;;;;;;13.02;75.13;102767.34;4964096;28;20230;-55
2022/03/27 09:28:31;;;;;;;11.60;10.48;;;;;;;13.22;72.96;102766.88;4962286;28;20245;-55
2022/03/27 09:30:59;;;;;;;12.90;11.70;;;;;;;13.28;73.71;102754.75;4954255;28;20221;-55
2022/03/27 09:33:46;;;;;;;13.70;12.18;;;;;;;13.22;72.93;102754.56;4966341;28;20227;-52
2022/03/27 09:36:14;;;;;;;12.80;11.38;;;;;;;13.51;72.90;102760.50;4964981;28;20238;-53
2022/03/27 09:38:41;;;;;;;12.27;10.88;;;;;;;13.91;70.13;102768.25;4965868;28;20274;-58
2022/03/27 09:41:08;;;;;;;12.40;10.02;;;;;;;14.12;67.86;102762.44;4966231;28;20262;-53
2022/03/27 09:43:35;;;;;;;10.25;9.27;;;;;;;14.15;66.43;102763.41;4957686;28;20237;-53
2022/03/27 09:46:04;;;;;;;8.82;7.93;;;;;;;13.85;66.27;102756.69;4964295;28;20366;-53
2022/03/27 09:48:32;;;;;;;8.07;7.15;;;;;;;13.94;63.35;102757.75;4963311;28;20226;-54
2022/03/27 09:51:01;;;;;;;6.45;5.85;;;;;;;13.95;62.90;102755.13;4965118;28;20334;-54
2022/03/27 09:53:29;;;;;;;10.07;7.20;;;;;;;13.83;63.51;102755.81;4976739;22;20338;-56
2022/03/27 09:56:13;;;;;;;7.15;6.45;;;;;;;13.80;62.71;102750.47;4964148;28;20234;-55
2022/03/27 09:58:41;;;;;;;10.18;7.35;;;;;;;13.53;64.08;102755.22;4965019;28;20250;-54
2022/03/27 10:01:09;;;;;;;7.47;6.78;;;;;;;13.36;64.81;102745.22;4965086;28;20230;-55
2022/03/27 10:03:36;;;;;;;6.78;5.82;;;;;;;13.14;65.61;102742.97;4963958;28;20593;-54
2022/03/27 10:06:04;;;;;;;6.68;6.03;;;;;;;13.29;65.06;102735.41;4962086;28;20231;-55
2022/03/27 10:08:31;;;;;;;6.18;5.50;;;;;;;13.59;62.99;102728.94;4963943;28;20325;-54
2022/03/27 10:10:59;;;;;;;10.45;6.65;;;;;;;13.47;62.56;102732.22;4968463;28;20249;-55
2022/03/27 10:13:28;;;;;;;8.85;5.75;;;;;;;13.17;63.61;102729.88;4966281;28;20278;-55
2022/03/27 10:15:57;;;;;;;8.25;6.90;;;;;;;12.85;66.06;102727.44;4965713;28;20319;-54
2022/03/27 10:18:23;;;;;;;7.50;6.80;;;;;;;12.78;67.59;102717.63;4950701;28;20231;-55
2022/03/27 10:20:52;;;;;;;7.95;7.03;;;;;;;12.86;66.97;102718.66;4968647;28;20684;-54
2022/03/27 10:23:23;;;;;;;9.18;8.27;;;;;;;12.83;66.67;102707.16;4969817;28;20301;-55
2022/03/27 10:25:51;;;;;;;8.82;7.65;;;;;;;13.15;66.45;102710.47;4948622;28;20676;-54
2022/03/27 10:28:22;;;;;;;8.82;7.95;;;;;;;13.34;65.22;102706.50;4956213;28;20235;-54
2022/03/27 10:30:50;;;;;;;9.77;8.88;;;;;;;13.26;64.63;102713.34;4956899;28;20230;-56
2022/03/27 10:33:17;;;;;;;7.20;6.20;;;;;;;13.58;61.58;102716.59;4967851;28;20251;-55
2022/03/27 10:35:51;;;;;;;7.50;6.80;;;;;;;13.78;59.91;102706.41;4952189;28;20741;-55
2022/03/27 10:38:26;;;;;;;7.43;6.82;;;;;;;13.78;60.67;102704.66;4964353;28;20515;-54
2022/03/27 10:41:17;;;;;;;8.40;7.60;;;;;;;13.92;60.24;102707.53;4960896;28;20240;-55
2022/03/27 10:43:48;;;;;;;5.15;4.65;;;;;;;14.00;56.79;102707.66;4980020;28;20241;-54
2022/03/27 10:46:19;;;;;;;5.47;4.97;;;;;;;14.02;56.33;102700.66;4962865;28;20313;-55
2022/03/27 10:48:46;;;;;;;5.80;4.95;;;;;;;13.75;57.97;102699.31;4967333;28;20607;-55
2022/03/27 10:51:33;;;;;;;5.60;5.07;;;;;;;13.76;57.91;102689.63;4964616;28;20266;-55
2022/03/27 10:54:06;;;;;;;6.22;5.68;;;;;;;13.91;57.08;102689.03;4965521;28;20322;-55
2022/03/27 10:56:35;;;;;;;6.20;5.57;;;;;;;13.93;56.96;102693.44;4949277;28;20666;-54
2022/03/27 10:59:11;;;;;;;6.95;6.28;;;;;;;13.77;59.09;102694.97;4960878;28;20227;-57
2022/03/27 11:01:40;;;;;;;7.90;7.20;;;;;;;14.07;58.97;102697.25;4937751;28;20289;-54
2022/03/27 11:04:10;;;;;;;7.35;6.60;;;;;;;14.33;58.03;102679.13;4940982;28;20263;-54
2022/03/27 11:06:38;;;;;;;7.03;5.93;;;;;;;14.29;57.29;102676.44;4945416;28;20297;-56
2022/03/27 11:09:07;;;;;;;7.70;6.20;;;;;;;14.14;57.62;102671.78;4960326;28;20242;-55
2022/03/27 11:12:02;;;;;;;8.10;6.28;;;;;;;14.14;58.45;102666.50;4956248;28;20309;-55
2022/03/27 11:15:04;;;;;;;5.55;4.95;;;;;;;14.10;58.25;102662.03;4965021;28;20242;-54
2022/03/27 11:17:49;;;;;;;6.93;6.20;;;;;;;14.18;57.67;102655.13;4945632;28;20223;-55
2022/03/27 11:20:46;;;;;;;6.53;5.75;;;;;;;14.15;57.34;102649.81;4945825;28;20254;-56
2022/03/27 11:23:23;;;;;;;5.13;4.63;;;;;;;14.11;57.75;102650.63;4894644;29;20304;-55
2022/03/27 11:25:51;;;;;;;5.60;5.07;;;;;;;14.26;57.02;102649.97;4953455;28;20736;-55